sensor_id;sensor_type;location;lat;lon;timestamp;temperature;humidity
18729;DHT22;9493;51.884;5.188;2023-04-24T00:01:00;9.80;99.90
18729;DHT22;9493;51.884;5.188;2023-04-24T00:03:27;9.80;99.90
18729;DHT22;9493;51.884;5.188;2023-04-24T00:05:56;9.80;99.90
18729;DHT22;9493;51.884;5.188;2023-04-24T00:08:24;9.70;99.90
18729;DHT22;9493;51.884;5.188;2023-04-24T00:10:51;9.70;99.90
18729;DHT22;9493;51.884;5.188;2023-04-24T00:13:18;9.70;99.90
18729;DHT22;9493;51.884;5.188;2023-04-24T00:15:45;9.60;99.90
18729;DHT22;9493;51.884;5.188;2023-04-24T00:18:12;9.50;99.90
18729;DHT22;9493;51.884;5.188;2023-04-24T00:20:39;9.60;99.90
18729;DHT22;9493;51.884;5.188;2023-04-24T00:23:08;9.60;99.90
18729;DHT22;9493;51.884;5.188;2023-04-24T00:25:38;9.40;99.90
18729;DHT22;9493;51.884;5.188;2023-04-24T00:28:05;9.30;99.90
18729;DHT22;9493;51.884;5.188;2023-04-24T00:30:32;9.30;99.90
18729;DHT22;9493;51.884;5.188;2023-04-24T00:32:59;9.40;99.90
18729;DHT22;9493;51.884;5.188;2023-04-24T00:35:26;9.40;99.90
18729;DHT22;9493;51.884;5.188;2023-04-24T00:37:52;9.40;99.90
18729;DHT22;9493;51.884;5.188;2023-04-24T00:40:21;9.50;99.90
18729;DHT22;9493;51.884;5.188;2023-04-24T00:42:47;9.40;99.90
18729;DHT22;9493;51.884;5.188;2023-04-24T00:45:15;9.70;99.90
18729;DHT22;9493;51.884;5.188;2023-04-24T00:47:46;9.40;99.90
18729;DHT22;9493;51.884;5.188;2023-04-24T00:50:15;9.50;99.90
18729;DHT22;9493;51.884;5.188;2023-04-24T00:52:42;9.40;99.90
18729;DHT22;9493;51.884;5.188;2023-04-24T00:55:09;9.40;99.90
18729;DHT22;9493;51.884;5.188;2023-04-24T00:57:38;9.40;99.90
18729;DHT22;9493;51.884;5.188;2023-04-24T01:00:06;9.30;99.90
18729;DHT22;9493;51.884;5.188;2023-04-24T01:02:37;9.40;99.90
18729;DHT22;9493;51.884;5.188;2023-04-24T01:05:06;9.40;99.90
18729;DHT22;9493;51.884;5.188;2023-04-24T01:07:34;9.40;99.90
18729;DHT22;9493;51.884;5.188;2023-04-24T01:10:01;9.50;99.90
18729;DHT22;9493;51.884;5.188;2023-04-24T01:12:28;9.50;99.90
18729;DHT22;9493;51.884;5.188;2023-04-24T01:14:56;9.50;99.90
18729;DHT22;9493;51.884;5.188;2023-04-24T01:17:23;9.60;99.90
18729;DHT22;9493;51.884;5.188;2023-04-24T01:19:50;9.50;99.90
18729;DHT22;9493;51.884;5.188;2023-04-24T01:22:20;9.60;99.90
18729;DHT22;9493;51.884;5.188;2023-04-24T01:24:47;9.70;99.90
18729;DHT22;9493;51.884;5.188;2023-04-24T01:27:14;9.70;99.90
18729;DHT22;9493;51.884;5.188;2023-04-24T01:29:41;9.60;99.90
18729;DHT22;9493;51.884;5.188;2023-04-24T01:32:08;9.60;99.90
18729;DHT22;9493;51.884;5.188;2023-04-24T01:34:35;9.60;99.90
18729;DHT22;9493;51.884;5.188;2023-04-24T01:37:01;9.70;99.90
18729;DHT22;9493;51.884;5.188;2023-04-24T01:39:30;9.70;99.90
18729;DHT22;9493;51.884;5.188;2023-04-24T01:41:56;9.70;99.90
18729;DHT22;9493;51.884;5.188;2023-04-24T01:44:23;9.70;99.90
18729;DHT22;9493;51.884;5.188;2023-04-24T01:46:50;9.60;99.90
18729;DHT22;9493;51.884;5.188;2023-04-24T01:49:19;9.70;99.90
18729;DHT22;9493;51.884;5.188;2023-04-24T01:51:46;9.60;99.90
18729;DHT22;9493;51.884;5.188;2023-04-24T01:54:13;9.60;99.90
18729;DHT22;9493;51.884;5.188;2023-04-24T01:56:42;9.60;99.90
18729;DHT22;9493;51.884;5.188;2023-04-24T01:59:09;9.60;99.90
18729;DHT22;9493;51.884;5.188;2023-04-24T02:01:37;9.60;99.90
18729;DHT22;9493;51.884;5.188;2023-04-24T02:04:05;9.60;99.90
18729;DHT22;9493;51.884;5.188;2023-04-24T02:06:31;9.60;99.90
18729;DHT22;9493;51.884;5.188;2023-04-24T02:08:59;9.60;99.90
18729;DHT22;9493;51.884;5.188;2023-04-24T02:11:26;9.60;99.90
18729;DHT22;9493;51.884;5.188;2023-04-24T02:13:54;9.60;99.90
18729;DHT22;9493;51.884;5.188;2023-04-24T02:16:21;9.60;99.90
18729;DHT22;9493;51.884;5.188;2023-04-24T02:18:47;9.60;99.90
18729;DHT22;9493;51.884;5.188;2023-04-24T02:21:14;9.60;99.90
18729;DHT22;9493;51.884;5.188;2023-04-24T02:23:41;9.60;99.90
18729;DHT22;9493;51.884;5.188;2023-04-24T02:26:08;9.60;99.90
18729;DHT22;9493;51.884;5.188;2023-04-24T02:28:35;9.60;99.90
18729;DHT22;9493;51.884;5.188;2023-04-24T02:31:04;9.60;99.90
18729;DHT22;9493;51.884;5.188;2023-04-24T02:33:31;9.60;99.90
18729;DHT22;9493;51.884;5.188;2023-04-24T02:35:58;9.70;99.90
18729;DHT22;9493;51.884;5.188;2023-04-24T02:38:25;9.70;99.90
18729;DHT22;9493;51.884;5.188;2023-04-24T02:40:51;9.60;99.90
18729;DHT22;9493;51.884;5.188;2023-04-24T02:43:18;9.70;99.90
18729;DHT22;9493;51.884;5.188;2023-04-24T02:45:45;9.70;99.90
18729;DHT22;9493;51.884;5.188;2023-04-24T02:48:13;9.70;99.90
18729;DHT22;9493;51.884;5.188;2023-04-24T02:50:40;9.70;99.90
18729;DHT22;9493;51.884;5.188;2023-04-24T02:53:07;9.70;99.90
18729;DHT22;9493;51.884;5.188;2023-04-24T02:55:34;9.60;99.90
18729;DHT22;9493;51.884;5.188;2023-04-24T02:58:01;9.70;99.90
18729;DHT22;9493;51.884;5.188;2023-04-24T03:00:28;9.60;99.90
18729;DHT22;9493;51.884;5.188;2023-04-24T03:02:55;9.60;99.90
18729;DHT22;9493;51.884;5.188;2023-04-24T03:05:23;9.50;99.90
18729;DHT22;9493;51.884;5.188;2023-04-24T03:07:50;9.50;99.90
18729;DHT22;9493;51.884;5.188;2023-04-24T03:10:18;9.50;99.90
18729;DHT22;9493;51.884;5.188;2023-04-24T03:12:45;9.50;99.90
18729;DHT22;9493;51.884;5.188;2023-04-24T03:15:11;9.50;99.90
18729;DHT22;9493;51.884;5.188;2023-04-24T03:17:38;9.50;99.90
18729;DHT22;9493;51.884;5.188;2023-04-24T03:20:06;9.60;99.90
18729;DHT22;9493;51.884;5.188;2023-04-24T03:22:35;9.50;99.90
18729;DHT22;9493;51.884;5.188;2023-04-24T03:25:02;9.50;99.90
18729;DHT22;9493;51.884;5.188;2023-04-24T03:27:29;9.40;99.90
18729;DHT22;9493;51.884;5.188;2023-04-24T03:29:56;9.40;99.90
18729;DHT22;9493;51.884;5.188;2023-04-24T03:32:23;9.40;99.90
18729;DHT22;9493;51.884;5.188;2023-04-24T03:34:50;9.40;99.90
18729;DHT22;9493;51.884;5.188;2023-04-24T03:37:17;9.30;99.90
18729;DHT22;9493;51.884;5.188;2023-04-24T03:39:45;9.30;99.90
18729;DHT22;9493;51.884;5.188;2023-04-24T03:42:12;9.20;99.90
18729;DHT22;9493;51.884;5.188;2023-04-24T03:44:39;9.20;99.90
18729;DHT22;9493;51.884;5.188;2023-04-24T03:47:05;9.10;99.90
18729;DHT22;9493;51.884;5.188;2023-04-24T03:49:32;9.10;99.90
18729;DHT22;9493;51.884;5.188;2023-04-24T03:51:59;9.10;99.90
18729;DHT22;9493;51.884;5.188;2023-04-24T03:54:26;9.00;99.90
18729;DHT22;9493;51.884;5.188;2023-04-24T03:56:54;9.00;99.90
18729;DHT22;9493;51.884;5.188;2023-04-24T03:59:20;9.00;99.90
18729;DHT22;9493;51.884;5.188;2023-04-24T04:01:47;9.20;99.90
18729;DHT22;9493;51.884;5.188;2023-04-24T04:04:14;9.10;99.90
18729;DHT22;9493;51.884;5.188;2023-04-24T04:06:41;9.10;99.90
18729;DHT22;9493;51.884;5.188;2023-04-24T04:09:07;9.10;99.90
18729;DHT22;9493;51.884;5.188;2023-04-24T04:11:34;9.20;99.90
18729;DHT22;9493;51.884;5.188;2023-04-24T04:14:03;9.10;99.90
18729;DHT22;9493;51.884;5.188;2023-04-24T04:16:30;9.10;99.90
18729;DHT22;9493;51.884;5.188;2023-04-24T04:18:57;9.10;99.90
18729;DHT22;9493;51.884;5.188;2023-04-24T04:21:25;9.10;99.90
18729;DHT22;9493;51.884;5.188;2023-04-24T04:23:52;9.20;99.90
18729;DHT22;9493;51.884;5.188;2023-04-24T04:26:20;8.90;99.90
18729;DHT22;9493;51.884;5.188;2023-04-24T04:28:51;9.20;99.90
18729;DHT22;9493;51.884;5.188;2023-04-24T04:31:21;9.20;99.90
18729;DHT22;9493;51.884;5.188;2023-04-24T04:33:50;9.10;99.90
18729;DHT22;9493;51.884;5.188;2023-04-24T04:36:18;9.10;99.90
18729;DHT22;9493;51.884;5.188;2023-04-24T04:38:45;9.10;99.90
18729;DHT22;9493;51.884;5.188;2023-04-24T04:41:12;9.10;99.90
18729;DHT22;9493;51.884;5.188;2023-04-24T04:43:39;9.00;99.90
18729;DHT22;9493;51.884;5.188;2023-04-24T04:46:06;9.00;99.90
18729;DHT22;9493;51.884;5.188;2023-04-24T04:48:35;9.00;99.90
18729;DHT22;9493;51.884;5.188;2023-04-24T04:51:02;9.00;99.90
18729;DHT22;9493;51.884;5.188;2023-04-24T04:53:28;9.00;99.90
18729;DHT22;9493;51.884;5.188;2023-04-24T04:55:55;9.00;99.90
18729;DHT22;9493;51.884;5.188;2023-04-24T04:58:22;9.00;99.90
18729;DHT22;9493;51.884;5.188;2023-04-24T05:00:49;9.00;99.90
18729;DHT22;9493;51.884;5.188;2023-04-24T05:03:16;8.90;99.90
18729;DHT22;9493;51.884;5.188;2023-04-24T05:05:44;8.90;99.90
18729;DHT22;9493;51.884;5.188;2023-04-24T05:08:11;8.90;99.90
18729;DHT22;9493;51.884;5.188;2023-04-24T05:10:38;8.90;99.90
18729;DHT22;9493;51.884;5.188;2023-04-24T05:13:04;8.80;99.90
18729;DHT22;9493;51.884;5.188;2023-04-24T05:15:31;9.00;99.90
18729;DHT22;9493;51.884;5.188;2023-04-24T05:17:59;8.80;99.90
18729;DHT22;9493;51.884;5.188;2023-04-24T05:20:25;8.90;99.90
18729;DHT22;9493;51.884;5.188;2023-04-24T05:22:54;8.90;99.90
18729;DHT22;9493;51.884;5.188;2023-04-24T05:25:20;8.90;99.90
18729;DHT22;9493;51.884;5.188;2023-04-24T05:27:47;8.90;99.90
18729;DHT22;9493;51.884;5.188;2023-04-24T05:30:14;8.90;99.90
18729;DHT22;9493;51.884;5.188;2023-04-24T05:32:41;8.90;99.90
18729;DHT22;9493;51.884;5.188;2023-04-24T05:35:08;8.90;99.90
18729;DHT22;9493;51.884;5.188;2023-04-24T05:37:35;8.90;99.90
18729;DHT22;9493;51.884;5.188;2023-04-24T05:40:04;8.80;99.90
18729;DHT22;9493;51.884;5.188;2023-04-24T05:42:31;8.80;99.90
18729;DHT22;9493;51.884;5.188;2023-04-24T05:44:58;8.80;99.90
18729;DHT22;9493;51.884;5.188;2023-04-24T05:47:24;8.90;99.90
18729;DHT22;9493;51.884;5.188;2023-04-24T05:49:51;9.00;99.90
18729;DHT22;9493;51.884;5.188;2023-04-24T05:52:18;8.90;99.90
18729;DHT22;9493;51.884;5.188;2023-04-24T05:54:45;8.80;99.90
18729;DHT22;9493;51.884;5.188;2023-04-24T05:57:13;8.80;99.90
18729;DHT22;9493;51.884;5.188;2023-04-24T05:59:40;8.80;99.90
18729;DHT22;9493;51.884;5.188;2023-04-24T06:02:07;8.80;99.90
18729;DHT22;9493;51.884;5.188;2023-04-24T06:04:34;8.80;99.90
18729;DHT22;9493;51.884;5.188;2023-04-24T06:07:01;8.80;99.90
18729;DHT22;9493;51.884;5.188;2023-04-24T06:09:28;8.90;99.90
18729;DHT22;9493;51.884;5.188;2023-04-24T06:11:55;8.80;99.90
18729;DHT22;9493;51.884;5.188;2023-04-24T06:14:23;8.70;99.90
18729;DHT22;9493;51.884;5.188;2023-04-24T06:16:50;8.70;99.90
18729;DHT22;9493;51.884;5.188;2023-04-24T06:19:16;8.70;99.90
18729;DHT22;9493;51.884;5.188;2023-04-24T06:21:43;8.80;99.90
18729;DHT22;9493;51.884;5.188;2023-04-24T06:24:10;8.80;99.90
18729;DHT22;9493;51.884;5.188;2023-04-24T06:26:37;8.90;99.90
18729;DHT22;9493;51.884;5.188;2023-04-24T06:29:04;8.90;99.90
18729;DHT22;9493;51.884;5.188;2023-04-24T06:31:32;8.90;99.90
18729;DHT22;9493;51.884;5.188;2023-04-24T06:34:02;8.90;99.90
18729;DHT22;9493;51.884;5.188;2023-04-24T06:36:29;8.80;99.90
18729;DHT22;9493;51.884;5.188;2023-04-24T06:38:56;8.90;99.90
18729;DHT22;9493;51.884;5.188;2023-04-24T06:41:23;8.80;99.90
18729;DHT22;9493;51.884;5.188;2023-04-24T06:43:50;8.90;99.90
18729;DHT22;9493;51.884;5.188;2023-04-24T06:46:17;8.80;99.90
18729;DHT22;9493;51.884;5.188;2023-04-24T06:48:45;8.70;99.90
18729;DHT22;9493;51.884;5.188;2023-04-24T06:51:12;8.60;99.90
18729;DHT22;9493;51.884;5.188;2023-04-24T06:53:39;8.60;99.90
18729;DHT22;9493;51.884;5.188;2023-04-24T06:56:05;8.60;99.90
18729;DHT22;9493;51.884;5.188;2023-04-24T06:58:32;8.50;99.90
18729;DHT22;9493;51.884;5.188;2023-04-24T07:00:59;8.60;99.90
18729;DHT22;9493;51.884;5.188;2023-04-24T07:03:26;8.60;99.90
18729;DHT22;9493;51.884;5.188;2023-04-24T07:05:54;8.50;99.90
18729;DHT22;9493;51.884;5.188;2023-04-24T07:08:21;8.50;99.90
18729;DHT22;9493;51.884;5.188;2023-04-24T07:10:49;8.50;99.90
18729;DHT22;9493;51.884;5.188;2023-04-24T07:13:17;8.50;99.90
18729;DHT22;9493;51.884;5.188;2023-04-24T07:15:44;8.50;99.90
18729;DHT22;9493;51.884;5.188;2023-04-24T07:18:11;8.50;99.90
18729;DHT22;9493;51.884;5.188;2023-04-24T07:20:37;8.50;99.90
18729;DHT22;9493;51.884;5.188;2023-04-24T07:23:06;8.60;99.90
18729;DHT22;9493;51.884;5.188;2023-04-24T07:25:33;8.60;99.90
18729;DHT22;9493;51.884;5.188;2023-04-24T07:28:00;8.60;99.90
18729;DHT22;9493;51.884;5.188;2023-04-24T07:30:27;8.60;99.90
18729;DHT22;9493;51.884;5.188;2023-04-24T07:32:54;8.60;99.90
18729;DHT22;9493;51.884;5.188;2023-04-24T07:35:21;8.70;99.90
18729;DHT22;9493;51.884;5.188;2023-04-24T07:37:48;8.70;99.90
18729;DHT22;9493;51.884;5.188;2023-04-24T07:40:17;8.70;99.90
18729;DHT22;9493;51.884;5.188;2023-04-24T07:42:44;8.80;99.90
18729;DHT22;9493;51.884;5.188;2023-04-24T07:45:10;8.80;99.90
18729;DHT22;9493;51.884;5.188;2023-04-24T07:47:37;9.10;99.90
18729;DHT22;9493;51.884;5.188;2023-04-24T07:50:05;8.80;99.90
18729;DHT22;9493;51.884;5.188;2023-04-24T07:52:32;8.80;99.90
18729;DHT22;9493;51.884;5.188;2023-04-24T07:54:59;8.80;99.90
18729;DHT22;9493;51.884;5.188;2023-04-24T07:57:29;9.00;99.90
18729;DHT22;9493;51.884;5.188;2023-04-24T07:59:55;8.80;99.90
18729;DHT22;9493;51.884;5.188;2023-04-24T08:02:22;8.70;99.90
18729;DHT22;9493;51.884;5.188;2023-04-24T08:04:51;8.70;99.90
18729;DHT22;9493;51.884;5.188;2023-04-24T08:07:19;8.60;99.90
18729;DHT22;9493;51.884;5.188;2023-04-24T08:09:46;8.60;99.90
18729;DHT22;9493;51.884;5.188;2023-04-24T08:12:13;8.50;99.90
18729;DHT22;9493;51.884;5.188;2023-04-24T08:14:41;8.80;99.90
18729;DHT22;9493;51.884;5.188;2023-04-24T08:17:08;8.60;99.90
18729;DHT22;9493;51.884;5.188;2023-04-24T08:19:35;8.60;99.90
18729;DHT22;9493;51.884;5.188;2023-04-24T08:22:02;8.70;99.90
18729;DHT22;9493;51.884;5.188;2023-04-24T08:24:29;8.70;99.90
18729;DHT22;9493;51.884;5.188;2023-04-24T08:26:56;8.90;99.90
18729;DHT22;9493;51.884;5.188;2023-04-24T08:29:23;8.90;99.90
18729;DHT22;9493;51.884;5.188;2023-04-24T08:31:52;9.00;99.90
18729;DHT22;9493;51.884;5.188;2023-04-24T08:34:20;9.00;99.90
18729;DHT22;9493;51.884;5.188;2023-04-24T08:36:46;9.10;99.90
18729;DHT22;9493;51.884;5.188;2023-04-24T08:39:13;9.10;99.90
18729;DHT22;9493;51.884;5.188;2023-04-24T08:41:41;9.10;99.90
18729;DHT22;9493;51.884;5.188;2023-04-24T08:44:11;9.20;99.90
18729;DHT22;9493;51.884;5.188;2023-04-24T08:46:38;9.10;99.90
18729;DHT22;9493;51.884;5.188;2023-04-24T08:49:07;9.00;99.90
18729;DHT22;9493;51.884;5.188;2023-04-24T08:51:37;9.10;99.90
18729;DHT22;9493;51.884;5.188;2023-04-24T08:54:04;9.10;99.90
18729;DHT22;9493;51.884;5.188;2023-04-24T08:56:33;9.00;99.90
18729;DHT22;9493;51.884;5.188;2023-04-24T08:59:04;8.90;99.90
18729;DHT22;9493;51.884;5.188;2023-04-24T09:01:32;8.90;99.90
18729;DHT22;9493;51.884;5.188;2023-04-24T09:04:00;9.00;99.90
18729;DHT22;9493;51.884;5.188;2023-04-24T09:06:30;9.20;99.90
18729;DHT22;9493;51.884;5.188;2023-04-24T09:09:00;9.10;99.90
18729;DHT22;9493;51.884;5.188;2023-04-24T09:11:30;9.10;99.90
18729;DHT22;9493;51.884;5.188;2023-04-24T09:13:57;9.10;99.90
18729;DHT22;9493;51.884;5.188;2023-04-24T09:16:25;9.10;99.90
18729;DHT22;9493;51.884;5.188;2023-04-24T09:18:52;9.10;99.90
18729;DHT22;9493;51.884;5.188;2023-04-24T09:21:21;9.20;99.90
18729;DHT22;9493;51.884;5.188;2023-04-24T09:23:57;9.30;99.90
18729;DHT22;9493;51.884;5.188;2023-04-24T09:26:24;9.40;99.90
18729;DHT22;9493;51.884;5.188;2023-04-24T09:28:53;9.40;99.90
18729;DHT22;9493;51.884;5.188;2023-04-24T09:31:20;9.60;99.90
18729;DHT22;9493;51.884;5.188;2023-04-24T09:33:53;9.70;99.90
18729;DHT22;9493;51.884;5.188;2023-04-24T09:36:27;9.50;99.90
18729;DHT22;9493;51.884;5.188;2023-04-24T09:38:58;9.50;99.90
18729;DHT22;9493;51.884;5.188;2023-04-24T09:41:26;9.50;99.90
18729;DHT22;9493;51.884;5.188;2023-04-24T09:43:53;9.50;99.90
18729;DHT22;9493;51.884;5.188;2023-04-24T09:46:20;9.40;99.90
18729;DHT22;9493;51.884;5.188;2023-04-24T09:48:48;9.30;99.90
18729;DHT22;9493;51.884;5.188;2023-04-24T09:51:14;9.40;99.90
18729;DHT22;9493;51.884;5.188;2023-04-24T09:53:46;9.50;99.90
18729;DHT22;9493;51.884;5.188;2023-04-24T09:56:14;9.70;99.90
18729;DHT22;9493;51.884;5.188;2023-04-24T09:58:41;9.60;99.90
18729;DHT22;9493;51.884;5.188;2023-04-24T10:01:08;9.80;99.90
18729;DHT22;9493;51.884;5.188;2023-04-24T10:03:35;9.70;99.90
18729;DHT22;9493;51.884;5.188;2023-04-24T10:06:03;9.60;99.90
18729;DHT22;9493;51.884;5.188;2023-04-24T10:08:34;9.50;99.90
18729;DHT22;9493;51.884;5.188;2023-04-24T10:11:01;9.40;99.90
18729;DHT22;9493;51.884;5.188;2023-04-24T10:13:30;9.40;99.90
18729;DHT22;9493;51.884;5.188;2023-04-24T10:15:59;9.50;99.90
18729;DHT22;9493;51.884;5.188;2023-04-24T10:18:27;9.20;99.90
18729;DHT22;9493;51.884;5.188;2023-04-24T10:20:54;9.40;99.90
18729;DHT22;9493;51.884;5.188;2023-04-24T10:23:21;9.40;99.90
18729;DHT22;9493;51.884;5.188;2023-04-24T10:25:49;9.50;99.90
18729;DHT22;9493;51.884;5.188;2023-04-24T10:28:19;9.60;99.90
18729;DHT22;9493;51.884;5.188;2023-04-24T10:30:47;9.60;99.90
18729;DHT22;9493;51.884;5.188;2023-04-24T10:33:16;9.60;99.90
18729;DHT22;9493;51.884;5.188;2023-04-24T10:35:46;9.80;99.90
18729;DHT22;9493;51.884;5.188;2023-04-24T10:38:18;9.90;99.90
18729;DHT22;9493;51.884;5.188;2023-04-24T10:40:49;10.10;99.90
18729;DHT22;9493;51.884;5.188;2023-04-24T10:43:17;9.80;99.90
